Time;durP1;ratioP1;P1;durP2;ratioP2;P2;SDS_P1;SDS_P2;PMS_P1;PMS_P2;Temp;Humidity;BMP_temperature;BMP_pressure;BME280_temperature;BME280_humidity;BME280_pressure;Samples;Min_cycle;Max_cycle;Signal;HPM_P1;HPM_P2
2024/03/08 00:03:34;;;;;;;48.50;20.50;;;;;;;-0.54;100.00;101462.91;213522;1291;138811;-85
2024/03/08 00:08:35;;;;;;;47.40;22.20;;;;;;;-0.57;100.00;101458.13;212955;1292;140205;-85
2024/03/08 00:13:36;;;;;;;48.60;20.10;;;;;;;-0.59;100.00;101453.86;214275;1291;95298;-84
2024/03/08 00:18:36;;;;;;;48.70;21.20;;;;;;;-0.63;100.00;101455.13;215486;1290;140217;-84
2024/03/08 00:23:37;;;;;;;45.20;20.20;;;;;;;-0.67;100.00;101453.62;217993;1291;139182;-84
2024/03/08 00:28:38;;;;;;;47.50;20.60;;;;;;;-0.69;100.00;101453.69;213192;1291;140809;-84
2024/03/08 00:33:39;;;;;;;46.10;21.40;;;;;;;-0.73;100.00;101455.02;213770;1291;139232;-83
2024/03/08 00:38:40;;;;;;;47.20;21.50;;;;;;;-0.77;100.00;101451.30;213691;1291;140133;-84
2024/03/08 00:43:40;;;;;;;47.90;21.30;;;;;;;-0.79;100.00;101454.17;214127;1293;96178;-84
2024/03/08 00:48:43;;;;;;;43.40;21.20;;;;;;;-0.83;100.00;101453.86;213178;1291;139859;-84
2024/03/08 00:53:43;;;;;;;51.20;20.70;;;;;;;-0.85;100.00;101456.73;213185;1291;138625;-85
2024/03/08 00:58:43;;;;;;;45.70;20.60;;;;;;;-0.87;100.00;101451.67;212748;1291;139613;-84
2024/03/08 01:03:44;;;;;;;46.40;19.50;;;;;;;-0.91;100.00;101447.79;213458;1291;138694;-84
2024/03/08 01:08:45;;;;;;;50.40;21.00;;;;;;;-0.94;100.00;101444.78;212799;1290;140458;-84
2024/03/08 01:13:47;;;;;;;47.50;21.00;;;;;;;-0.98;100.00;101438.21;213342;1291;95634;-85
2024/03/08 01:18:47;;;;;;;45.30;21.00;;;;;;;-1.04;100.00;101432.12;212821;1291;140327;-85
2024/03/08 01:23:48;;;;;;;45.70;21.40;;;;;;;-1.07;100.00;101430.67;213182;1292;139052;-84
2024/03/08 01:28:50;;;;;;;45.80;21.10;;;;;;;-1.11;100.00;101428.14;212707;1292;140037;-85
2024/03/08 01:33:50;;;;;;;47.30;21.80;;;;;;;-1.15;100.00;101424.81;213254;1294;138856;-85
2024/03/08 01:38:51;;;;;;;45.30;20.60;;;;;;;-1.17;100.00;101422.77;212833;1289;140726;-85
2024/03/08 01:43:52;;;;;;;53.30;22.60;;;;;;;-1.20;100.00;101421.17;213483;1292;96187;-85
2024/03/08 01:48:53;;;;;;;46.90;20.70;;;;;;;-1.24;100.00;101425.33;212883;1291;140761;-85
2024/03/08 01:53:57;;;;;;;58.90;23.90;;;;;;;-1.26;100.00;101420.80;213250;1292;138498;-85
2024/03/08 01:58:59;;;;;;;388.20;111.30;;;;;;;-1.27;100.00;101415.95;212907;1289;140652;-85
2024/03/08 02:04:00;;;;;;;299.50;81.60;;;;;;;-1.29;100.00;101412.16;213535;1294;140386;-84
2024/03/08 02:09:00;;;;;;;199.70;57.70;;;;;;;-1.30;100.00;101410.05;212890;1290;140636;-85
2024/03/08 02:14:01;;;;;;;135.50;43.20;;;;;;;-1.31;100.00;101403.08;213641;1290;96584;-85
2024/03/08 02:19:01;;;;;;;110.00;35.70;;;;;;;-1.32;100.00;101396.83;212961;1291;140079;-85
2024/03/08 02:24:02;;;;;;;105.90;33.20;;;;;;;-1.36;100.00;101391.34;213546;1291;137543;-85
2024/03/08 02:29:02;;;;;;;78.80;26.60;;;;;;;-1.38;100.00;101391.67;213016;1289;140272;-87
2024/03/08 02:34:03;;;;;;;59.30;24.10;;;;;;;-1.42;100.00;101391.10;213557;1292;138809;-87
2024/03/08 02:39:05;;;;;;;50.60;21.10;;;;;;;-1.45;100.00;101386.66;213034;1294;139993;-87
2024/03/08 02:44:07;;;;;;;47.50;20.90;;;;;;;-1.49;100.00;101386.46;213860;1292;95300;-86
2024/03/08 02:49:07;;;;;;;48.10;21.10;;;;;;;-1.54;100.00;101384.36;213334;1291;139988;-86
2024/03/08 02:54:10;;;;;;;49.90;23.00;;;;;;;-1.60;100.00;101385.13;213443;1291;138688;-86
2024/03/08 02:59:10;;;;;;;52.40;21.70;;;;;;;-1.63;100.00;101383.36;212813;1290;140916;-86
2024/03/08 03:04:11;;;;;;;58.50;22.10;;;;;;;-1.66;100.00;101376.79;213539;1291;138790;-86
2024/03/08 03:09:11;;;;;;;49.00;22.00;;;;;;;-1.69;100.00;101371.34;212775;1294;141083;-87
2024/03/08 03:14:12;;;;;;;59.80;22.70;;;;;;;-1.71;100.00;101370.27;213370;1292;95258;-87
2024/03/08 03:19:12;;;;;;;49.40;21.40;;;;;;;-1.73;100.00;101369.41;212776;1292;140510;-86
2024/03/08 03:24:16;;;;;;;46.20;20.20;;;;;;;-1.74;100.00;101365.42;212965;1291;139137;-86
2024/03/08 03:29:17;;;;;;;46.80;21.60;;;;;;;-1.76;100.00;101372.82;212647;1291;140189;-87
2024/03/08 03:34:18;;;;;;;48.40;21.30;;;;;;;-1.79;100.00;101369.41;213178;1290;138696;-87
2024/03/08 03:39:20;;;;;;;48.70;22.00;;;;;;;-1.84;100.00;101369.16;212758;1290;140025;-86
2024/03/08 03:44:20;;;;;;;43.30;20.30;;;;;;;-1.87;100.00;101376.39;213225;1292;138659;-86
2024/03/08 03:49:20;;;;;;;41.90;20.20;;;;;;;-1.89;100.00;101372.08;212732;1292;140390;-87
2024/03/08 03:54:21;;;;;;;50.50;22.40;;;;;;;-1.91;100.00;101371.16;213274;1292;138554;-86
2024/03/08 03:59:22;;;;;;;44.30;22.10;;;;;;;-1.95;100.00;101374.73;213204;1292;140434;-87
2024/03/08 04:04:24;;;;;;;58.40;25.00;;;;;;;-2.01;100.00;101369.83;213234;1292;138745;-86
2024/03/08 04:09:24;;;;;;;60.30;24.70;;;;;;;-2.06;100.00;101371.07;213050;1292;140414;-87
2024/03/08 04:14:25;;;;;;;61.00;24.20;;;;;;;-2.10;100.00;101366.22;213958;1290;138751;-86
2024/03/08 04:19:27;;;;;;;64.60;25.20;;;;;;;-2.11;100.00;101360.50;214423;1291;140470;-86
2024/03/08 04:24:28;;;;;;;61.70;24.90;;;;;;;-2.13;100.00;101357.33;213909;1291;138571;-87
2024/03/08 04:29:28;;;;;;;56.70;24.20;;;;;;;-2.16;100.00;101356.36;213017;1294;140679;-87
2024/03/08 04:34:29;;;;;;;57.70;24.40;;;;;;;-2.18;100.00;101349.72;213880;1291;139220;-87
2024/03/08 04:39:31;;;;;;;54.60;24.20;;;;;;;-2.19;100.00;101348.38;215342;1290;140051;-87
2024/03/08 04:44:33;;;;;;;54.30;22.20;;;;;;;-2.19;100.00;101348.52;213915;1292;139114;-88
2024/03/08 04:49:37;;;;;;;49.30;23.20;;;;;;;-2.18;100.00;101348.80;212479;1292;139893;-88
2024/03/08 04:54:37;;;;;;;45.10;22.30;;;;;;;-2.17;100.00;101343.41;213130;1291;139150;-87
2024/03/08 04:59:38;;;;;;;47.30;23.20;;;;;;;-2.16;100.00;101347.14;212558;1291;141216;-87
2024/03/08 05:04:38;;;;;;;56.70;23.90;;;;;;;-2.15;100.00;101347.19;213116;1292;139317;-88
2024/03/08 05:09:40;;;;;;;65.10;24.20;;;;;;;-2.15;100.00;101348.11;212564;1291;140921;-89
2024/03/08 05:14:41;;;;;;;62.00;25.80;;;;;;;-2.14;100.00;101349.29;213255;1291;139460;-88
2024/03/08 05:19:41;;;;;;;49.30;24.50;;;;;;;-2.15;100.00;101350.80;212926;1292;140523;-88
2024/03/08 05:24:42;;;;;;;58.20;25.50;;;;;;;-2.15;100.00;101353.83;213263;1293;138921;-88
2024/03/08 05:29:43;;;;;;;54.10;25.90;;;;;;;-2.16;100.00;101353.39;212656;1290;140221;-88
2024/03/08 05:34:44;;;;;;;54.70;24.70;;;;;;;-2.17;100.00;101348.21;213079;1291;138928;-88
2024/03/08 05:39:45;;;;;;;55.40;25.20;;;;;;;-2.15;100.00;101350.53;212766;1291;141244;-88
2024/03/08 05:44:45;;;;;;;59.00;25.30;;;;;;;-2.15;100.00;101349.39;213183;1292;138944;-89
2024/03/08 05:49:45;;;;;;;59.90;24.80;;;;;;;-2.12;100.00;101351.11;212851;1292;140710;-88
2024/03/08 05:54:46;;;;;;;88.80;38.60;;;;;;;-2.10;100.00;101345.34;213025;1294;139009;-88
2024/03/08 05:59:47;;;;;;;64.40;27.90;;;;;;;-2.07;100.00;101351.16;212755;1291;140864;-88
2024/03/08 06:04:49;;;;;;;62.90;27.40;;;;;;;-2.02;100.00;101352.56;213315;1292;138808;-88
2024/03/08 06:09:50;;;;;;;54.90;25.90;;;;;;;-1.98;100.00;101351.11;213105;1289;140297;-89
2024/03/08 06:14:50;;;;;;;57.20;26.00;;;;;;;-1.88;100.00;101354.64;213316;1292;139017;-89
2024/03/08 06:19:52;;;;;;;57.20;26.90;;;;;;;-1.73;100.00;101355.85;213088;1291;139661;-89
2024/03/08 06:24:54;;;;;;;63.80;26.80;;;;;;;-1.65;100.00;101359.52;213319;1294;138615;-89
2024/03/08 06:29:54;;;;;;;60.60;25.40;;;;;;;-1.57;100.00;101363.64;212731;1292;140768;-89
2024/03/08 06:34:54;;;;;;;61.60;27.70;;;;;;;-1.49;100.00;101362.06;213192;1291;138998;-88
2024/03/08 06:39:55;;;;;;;57.20;28.10;;;;;;;-1.38;100.00;101359.21;212780;1291;140683;-89
2024/03/08 06:44:59;;;;;;;67.70;29.00;;;;;;;-1.28;100.00;101355.45;213298;1292;139013;-88
2024/03/08 06:50:00;;;;;;;64.80;29.50;;;;;;;-1.19;100.00;101356.81;213380;1294;141678;-88
2024/03/08 06:55:01;;;;;;;68.70;31.00;;;;;;;-1.08;100.00;101359.09;213834;1292;138700;-89
2024/03/08 07:00:02;;;;;;;60.70;29.50;;;;;;;-0.95;100.00;101358.98;213395;1294;139823;-89
2024/03/08 07:05:04;;;;;;;76.90;32.70;;;;;;;-0.84;100.00;101351.14;214264;1291;138885;-89
2024/03/08 07:10:04;;;;;;;71.20;30.30;;;;;;;-0.77;100.00;101348.66;213718;1292;140397;-88
2024/03/08 07:15:06;;;;;;;69.10;30.80;;;;;;;-0.65;100.00;101350.09;214051;1293;141323;-88
2024/03/08 07:20:11;;;;;;;68.20;32.40;;;;;;;-0.49;100.00;101353.01;212975;1291;140166;-89
2024/03/08 07:25:20;;;;;;;67.50;31.00;;;;;;;-0.37;100.00;101352.21;213355;1293;138635;-88
2024/03/08 07:35:46;;;;;;;67.50;30.00;;;;;;;0.02;100.00;101349.48;213130;1294;138815;-89
2024/03/08 07:40:47;;;;;;;73.60;32.80;;;;;;;0.19;100.00;101350.14;213470;1292;139902;-89
2024/03/08 07:45:48;;;;;;;70.80;31.70;;;;;;;0.35;100.00;101346.79;214078;1291;139269;-88
2024/03/08 07:50:49;;;;;;;59.10;27.50;;;;;;;0.47;100.00;101341.94;214054;1294;139817;-88
2024/03/08 07:55:50;;;;;;;57.80;26.70;;;;;;;0.60;100.00;101341.95;213891;1292;96513;-87
2024/03/08 08:00:50;;;;;;;53.10;24.80;;;;;;;0.77;100.00;101338.59;212888;1292;139159;-87
2024/03/08 08:05:51;;;;;;;55.40;25.40;;;;;;;0.95;100.00;101334.19;213634;1294;138536;-86
2024/03/08 08:10:52;;;;;;;54.40;25.40;;;;;;;1.13;100.00;101333.77;213250;1292;141196;-85
2024/03/08 08:15:52;;;;;;;56.90;25.90;;;;;;;1.36;100.00;101332.96;213478;1292;138680;-86
2024/03/08 08:20:53;;;;;;;53.00;25.00;;;;;;;1.59;100.00;101337.04;213146;1290;139927;-86
2024/03/08 08:25:53;;;;;;;54.90;25.70;;;;;;;1.78;100.00;101338.36;213629;1294;97378;-84
2024/03/08 08:30:53;;;;;;;48.80;24.80;;;;;;;1.99;100.00;101338.27;212976;1292;247372;-83
2024/03/08 08:35:54;;;;;;;50.40;25.10;;;;;;;2.25;100.00;101337.91;213615;1293;138412;-83
2024/03/08 08:40:55;;;;;;;52.10;24.40;;;;;;;2.56;100.00;101330.47;213265;1289;140022;-84
2024/03/08 08:45:56;;;;;;;52.40;25.20;;;;;;;2.88;100.00;101328.17;213624;1289;139174;-83
2024/03/08 08:50:57;;;;;;;51.70;24.50;;;;;;;3.17;100.00;101327.39;213605;1289;140798;-83
2024/03/08 08:55:57;;;;;;;47.00;24.20;;;;;;;3.50;100.00;101318.61;213869;1294;97524;-84
2024/03/08 09:00:59;;;;;;;46.20;22.00;;;;;;;3.87;100.00;101317.97;213627;1289;139963;-84
2024/03/08 09:05:59;;;;;;;48.30;24.30;;;;;;;4.27;100.00;101310.70;214451;1289;138342;-83
2024/03/08 09:11:00;;;;;;;50.50;25.00;;;;;;;4.75;100.00;101306.29;214109;1289;139982;-83
2024/03/08 09:16:02;;;;;;;44.00;22.40;;;;;;;5.29;100.00;101301.73;214996;1292;138664;-83
2024/03/08 09:21:03;;;;;;;34.30;18.10;;;;;;;5.94;99.82;101298.41;213527;1289;139912;-85
2024/03/08 09:26:03;;;;;;;39.00;18.60;;;;;;;6.54;99.88;101297.84;213868;1289;97341;-84
2024/03/08 09:31:05;;;;;;;37.10;19.60;;;;;;;7.10;95.32;101292.73;213097;1291;139480;-85
2024/03/08 09:36:07;;;;;;;39.70;21.00;;;;;;;7.36;93.30;101287.39;213779;1289;138325;-85
2024/03/08 09:41:09;;;;;;;33.00;18.60;;;;;;;7.78;91.28;101280.50;213088;1289;138991;-84
2024/03/08 09:46:10;;;;;;;33.40;18.80;;;;;;;8.53;91.79;101277.86;213714;1294;138352;-84
2024/03/08 09:51:14;;;;;;;34.30;18.30;;;;;;;9.20;89.41;101272.72;213176;1292;139895;-84
2024/03/08 09:56:15;;;;;;;28.90;17.50;;;;;;;9.88;88.35;101267.05;213719;1295;104398;-84
2024/03/08 10:01:16;;;;;;;29.60;16.10;;;;;;;10.22;82.50;101259.91;213301;1289;139963;-83
2024/03/08 10:06:23;;;;;;;29.30;17.20;;;;;;;10.63;82.41;101257.77;213062;1294;139953;-84
2024/03/08 10:11:26;;;;;;;26.10;15.20;;;;;;;10.93;76.65;101255.67;213402;1289;139354;-85
2024/03/08 10:16:30;;;;;;;27.50;14.80;;;;;;;11.11;77.70;101251.88;213438;1290;140417;-86
2024/03/08 10:21:33;;;;;;;50.90;16.40;;;;;;;11.60;75.67;101245.23;213894;1293;138703;-84
2024/03/08 10:26:33;;;;;;;33.30;16.50;;;;;;;11.66;71.06;101236.06;213791;1294;140195;-85
2024/03/08 10:31:34;;;;;;;28.00;16.00;;;;;;;11.47;69.94;101237.07;213735;1291;96715;-85
2024/03/08 10:36:37;;;;;;;24.90;14.50;;;;;;;11.30;66.91;101238.68;213250;1290;139750;-85
2024/03/08 10:41:41;;;;;;;24.50;14.00;;;;;;;10.91;66.03;101239.39;213750;1293;138230;-85
2024/03/08 10:47:09;;;;;;;23.80;14.60;;;;;;;11.19;68.09;101234.98;213335;1294;140556;-85
2024/03/08 10:52:12;;;;;;;24.80;14.10;;;;;;;11.69;66.47;101229.65;213662;1294;138198;-84
2024/03/08 10:57:15;;;;;;;25.60;15.10;;;;;;;11.72;65.90;101223.48;213212;1289;139376;-86
2024/03/08 11:02:18;;;;;;;27.40;14.30;;;;;;;11.84;64.67;101221.67;213849;1289;96629;-85
2024/03/08 11:07:19;;;;;;;24.40;13.80;;;;;;;11.68;61.85;101217.81;213231;1289;138849;-87
2024/03/08 11:12:32;;;;;;;26.60;15.20;;;;;;;11.01;61.07;101211.61;213659;1294;138092;-87
2024/03/08 11:17:33;;;;;;;26.40;16.00;;;;;;;10.90;62.11;101210.48;213215;1289;139840;-87
2024/03/08 11:22:34;;;;;;;24.60;14.90;;;;;;;11.09;62.13;101207.77;213553;1289;138836;-85
2024/03/08 11:27:38;;;;;;;30.70;15.60;;;;;;;10.99;62.09;101202.35;213089;1289;139245;-85
2024/03/08 11:32:38;;;;;;;27.80;15.70;;;;;;;11.16;63.93;101189.48;213637;1295;138404;-86
2024/03/08 11:37:39;;;;;;;39.40;21.90;;;;;;;11.19;61.81;101188.22;213257;1295;139597;-85
2024/03/08 11:42:41;;;;;;;31.90;18.70;;;;;;;10.98;61.33;101183.45;213600;1289;138145;-85
2024/03/08 11:47:46;;;;;;;25.60;13.60;;;;;;;10.82;60.83;101179.63;213043;1292;139123;-87
2024/03/08 11:52:46;;;;;;;38.20;27.90;;;;;;;10.67;59.30;101174.17;213762;1294;138320;-87
2024/03/08 11:57:47;;;;;;;49.80;30.90;;;;;;;10.29;59.71;101168.58;212901;1302;140014;-84
2024/03/08 12:03:07;;;;;;;35.70;22.20;;;;;;;10.33;62.60;101162.30;213658;1294;138412;-85
2024/03/08 12:08:09;;;;;;;58.60;24.60;;;;;;;10.44;61.28;101161.09;213172;1290;139534;-86
2024/03/08 12:13:13;;;;;;;59.00;28.30;;;;;;;10.27;60.38;101157.29;213692;1289;138424;-86
2024/03/08 12:18:13;;;;;;;76.60;35.50;;;;;;;10.26;60.31;101154.20;213107;1289;139532;-86
2024/03/08 12:23:15;;;;;;;37.10;15.70;;;;;;;10.23;59.49;101148.94;213710;1290;138555;-87
2024/03/08 12:28:15;;;;;;;29.80;14.40;;;;;;;10.03;58.49;101141.45;213212;1295;139053;-86
2024/03/08 12:33:16;;;;;;;38.50;22.40;;;;;;;9.91;59.69;101138.23;213534;1290;138046;-85
2024/03/08 12:38:17;;;;;;;31.10;14.40;;;;;;;10.00;59.53;101128.84;213182;1292;139247;-86
2024/03/08 12:43:18;;;;;;;29.50;14.30;;;;;;;9.91;56.78;101125.27;213668;1289;138179;-86
2024/03/08 12:48:20;;;;;;;31.60;14.10;;;;;;;9.63;58.60;101117.00;213042;1290;139153;-84
2024/03/08 12:53:22;;;;;;;179.80;72.30;;;;;;;9.56;57.38;101110.99;213936;1289;137840;-85
2024/03/08 12:58:23;;;;;;;40.90;18.30;;;;;;;9.41;58.10;101107.92;213139;1289;140949;-85
2024/03/08 13:03:23;;;;;;;38.50;17.60;;;;;;;9.38;57.98;101107.01;213795;1294;137686;-86
2024/03/08 13:08:27;;;;;;;40.30;15.00;;;;;;;9.20;57.35;101098.80;212905;1294;139146;-84
2024/03/08 13:13:27;;;;;;;25.80;13.50;;;;;;;9.13;59.27;101093.30;214064;1289;97947;-84
2024/03/08 13:18:28;;;;;;;27.10;13.90;;;;;;;9.01;57.26;101085.65;213602;1289;140069;-85
2024/03/08 13:23:29;;;;;;;34.00;16.20;;;;;;;8.90;57.52;101075.24;214227;1290;137596;-86
2024/03/08 13:28:31;;;;;;;35.90;17.60;;;;;;;8.77;58.64;101075.89;213884;1294;138960;-85
2024/03/08 13:33:35;;;;;;;39.60;17.10;;;;;;;8.66;59.06;101064.37;213771;1290;137664;-85
2024/03/08 13:38:36;;;;;;;25.90;13.50;;;;;;;8.60;59.25;101064.16;213066;1294;139369;-85
2024/03/08 13:43:37;;;;;;;25.40;13.40;;;;;;;8.60;59.01;101059.63;213653;1289;96758;-84
2024/03/08 13:48:37;;;;;;;74.60;40.40;;;;;;;8.58;59.66;101053.56;212977;1289;139754;-86
2024/03/08 13:53:40;;;;;;;45.40;20.90;;;;;;;8.51;58.40;101044.87;213856;1288;137933;-86
2024/03/08 13:58:40;;;;;;;24.00;12.60;;;;;;;8.41;59.70;101043.24;215166;1291;139017;-84
2024/03/08 14:03:41;;;;;;;34.20;15.00;;;;;;;8.42;59.73;101033.40;213832;1289;137807;-85
2024/03/08 14:08:42;;;;;;;31.70;14.70;;;;;;;8.42;60.75;101025.62;215069;1290;139606;-83
2024/03/08 14:13:45;;;;;;;28.70;13.30;;;;;;;8.41;60.08;101025.47;213906;1292;96721;-85
2024/03/08 14:18:46;;;;;;;35.40;14.90;;;;;;;8.35;59.93;101018.16;213198;1291;139527;-85
2024/03/08 14:23:48;;;;;;;32.70;14.60;;;;;;;8.34;61.58;101014.29;213740;1289;137550;-85
2024/03/08 14:28:51;;;;;;;38.90;17.40;;;;;;;8.35;60.76;101015.09;213292;1291;140207;-87
2024/03/08 14:33:52;;;;;;;39.40;16.00;;;;;;;8.27;60.25;101006.55;214165;1294;138780;-87
2024/03/08 14:38:53;;;;;;;55.30;22.40;;;;;;;8.19;60.03;101005.03;214566;1292;139802;-86
2024/03/08 14:43:53;;;;;;;30.70;14.20;;;;;;;8.16;61.51;100999.77;214714;1289;97464;-86
2024/03/08 14:48:53;;;;;;;38.70;16.40;;;;;;;8.15;61.07;100999.65;213487;1290;142883;-87
2024/03/08 14:53:54;;;;;;;38.10;13.30;;;;;;;8.09;61.60;100990.23;213714;1290;137870;-86
2024/03/08 14:58:58;;;;;;;62.70;23.50;;;;;;;8.04;61.38;100983.73;214009;1293;139556;-88
2024/03/08 15:04:08;;;;;;;28.60;14.90;;;;;;;7.96;60.06;100982.09;213552;1290;137640;-88
2024/03/08 15:09:18;;;;;;;33.60;14.80;;;;;;;7.85;59.71;100979.95;213051;1289;141088;-85
2024/03/08 15:14:20;;;;;;;44.70;19.00;;;;;;;7.76;61.31;100980.06;213675;1289;97375;-86
2024/03/08 15:19:20;;;;;;;31.40;15.30;;;;;;;7.70;62.53;100973.84;213508;1291;140200;-86
2024/03/08 15:24:22;;;;;;;43.60;20.10;;;;;;;7.67;62.12;100974.05;213700;1293;138115;-88
2024/03/08 15:29:26;;;;;;;29.40;15.60;;;;;;;7.62;62.04;100970.45;213038;1289;139377;-86
2024/03/08 15:34:27;;;;;;;38.40;18.10;;;;;;;7.54;62.62;100965.97;213419;1291;137642;-85
2024/03/08 15:39:27;;;;;;;29.90;15.20;;;;;;;7.48;63.19;100958.83;213016;1289;139623;-85
2024/03/08 15:44:28;;;;;;;38.50;17.00;;;;;;;7.41;63.43;100951.78;213893;1289;138136;-85
2024/03/08 15:49:28;;;;;;;37.70;16.80;;;;;;;7.36;65.44;100942.94;213951;1289;139214;-87
2024/03/08 15:54:29;;;;;;;36.20;18.50;;;;;;;7.28;64.17;100941.59;214331;1289;137484;-86
2024/03/08 15:59:33;;;;;;;36.50;16.50;;;;;;;7.20;64.40;100938.67;215076;1289;139532;-86
2024/03/08 16:04:34;;;;;;;42.70;19.60;;;;;;;7.12;65.07;100939.64;213472;1290;137622;-86
2024/03/08 16:09:34;;;;;;;38.90;18.70;;;;;;;7.03;65.03;100936.45;213177;1289;139061;-86
2024/03/08 16:14:38;;;;;;;41.40;20.50;;;;;;;6.94;65.45;100939.36;213531;1293;138766;-86
2024/03/08 16:19:41;;;;;;;193.90;66.20;;;;;;;6.86;65.81;100936.83;213171;1290;138963;-86
2024/03/08 16:24:43;;;;;;;84.10;32.40;;;;;;;6.76;66.55;100932.59;213636;1292;138279;-86
2024/03/08 16:29:47;;;;;;;57.10;27.20;;;;;;;6.68;67.39;100927.70;213143;1289;140087;-85
2024/03/08 16:34:47;;;;;;;45.40;23.10;;;;;;;6.58;68.27;100930.61;213453;1292;138226;-86
2024/03/08 16:39:48;;;;;;;45.40;22.80;;;;;;;6.45;68.73;100928.27;213005;1289;138917;-86
2024/03/08 16:44:48;;;;;;;39.60;18.70;;;;;;;6.33;69.56;100925.35;213524;1289;138236;-86
2024/03/08 16:49:49;;;;;;;41.10;21.20;;;;;;;6.20;70.43;100925.66;213167;1290;139426;-86
2024/03/08 16:54:50;;;;;;;43.70;19.70;;;;;;;6.06;70.96;100924.91;213574;1294;138204;-86
2024/03/08 16:59:51;;;;;;;40.30;21.80;;;;;;;5.94;72.17;100926.89;213113;1291;139525;-86
2024/03/08 17:04:52;;;;;;;48.20;22.50;;;;;;;5.84;73.68;100927.19;213795;1289;138215;-86
2024/03/08 17:09:52;;;;;;;55.60;26.00;;;;;;;5.74;74.91;100932.24;213151;1291;139029;-86
2024/03/08 17:14:53;;;;;;;58.80;27.10;;;;;;;5.65;76.41;100928.77;213716;1291;138272;-86
2024/03/08 17:19:54;;;;;;;59.70;27.00;;;;;;;5.55;77.52;100929.16;213560;1289;138615;-87
2024/03/08 17:24:55;;;;;;;72.50;33.00;;;;;;;5.42;78.47;100927.55;214154;1290;136986;-87
2024/03/08 17:29:57;;;;;;;88.70;37.00;;;;;;;5.28;79.85;100926.69;213392;1289;139386;-87
2024/03/08 17:34:57;;;;;;;81.60;33.20;;;;;;;5.16;80.03;100924.02;213984;1293;139283;-88
2024/03/08 17:39:58;;;;;;;148.90;58.70;;;;;;;4.98;80.15;100930.63;213272;1289;140831;-86
2024/03/08 17:45:00;;;;;;;215.10;84.70;;;;;;;4.78;80.71;100924.64;213786;1289;139785;-85
2024/03/08 17:50:01;;;;;;;107.30;47.70;;;;;;;4.67;82.01;100924.87;213294;1289;142433;-86
2024/03/08 17:55:04;;;;;;;102.80;45.10;;;;;;;4.52;82.63;100922.73;213804;1292;139187;-87
2024/03/08 18:00:17;;;;;;;102.10;44.00;;;;;;;4.35;83.53;100923.73;213187;1289;140388;-85
2024/03/08 18:05:18;;;;;;;110.40;42.80;;;;;;;4.24;84.73;100923.83;213811;1289;139183;-87
2024/03/08 18:10:20;;;;;;;141.50;49.30;;;;;;;4.12;85.37;100920.81;213326;1289;140785;-86
2024/03/08 18:15:24;;;;;;;139.60;48.20;;;;;;;4.01;85.47;100920.31;213847;1290;139133;-86
2024/03/08 18:20:41;;;;;;;158.90;53.10;;;;;;;3.87;86.38;100921.31;213609;1292;139857;-86
2024/03/08 18:25:44;;;;;;;188.60;56.40;;;;;;;3.71;86.77;100919.64;214088;1293;108481;-87
2024/03/08 18:30:44;;;;;;;161.90;57.00;;;;;;;3.57;87.49;100915.94;213381;1290;139795;-86
2024/03/08 18:35:47;;;;;;;148.30;50.30;;;;;;;3.44;85.98;100922.20;213771;1289;138392;-86
2024/03/08 18:40:47;;;;;;;671.60;206.80;;;;;;;3.29;86.59;100913.52;213125;1289;139908;-86
2024/03/08 18:45:47;;;;;;;471.00;125.50;;;;;;;3.16;86.29;100906.81;213789;1291;138718;-86
2024/03/08 18:50:48;;;;;;;217.90;63.60;;;;;;;3.09;85.85;100900.84;213124;1290;140146;-86
2024/03/08 18:55:49;;;;;;;105.90;38.00;;;;;;;3.05;85.76;100899.48;213796;1292;97185;-87
2024/03/08 19:00:49;;;;;;;104.30;37.10;;;;;;;3.04;85.31;100901.58;213754;1293;140294;-86
2024/03/08 19:05:50;;;;;;;98.60;36.70;;;;;;;3.03;85.22;100894.48;214005;1290;138121;-86
2024/03/08 19:10:51;;;;;;;68.90;29.70;;;;;;;2.99;85.78;100892.52;213389;1291;138987;-86
2024/03/08 19:15:51;;;;;;;80.20;31.60;;;;;;;2.91;85.91;100890.48;213723;1289;138365;-86
2024/03/08 19:20:51;;;;;;;90.30;33.50;;;;;;;2.85;86.00;100890.49;213397;1289;139564;-87
2024/03/08 19:25:52;;;;;;;81.30;33.30;;;;;;;2.78;86.01;100891.48;213904;1291;110175;-88
2024/03/08 19:30:54;;;;;;;92.70;34.20;;;;;;;2.72;86.42;100893.92;213441;1289;140681;-86
2024/03/08 19:35:54;;;;;;;83.70;33.10;;;;;;;2.66;86.86;100888.35;213695;1289;138755;-87
2024/03/08 19:40:56;;;;;;;74.80;30.00;;;;;;;2.59;86.93;100891.58;213230;1293;139586;-86
2024/03/08 19:45:58;;;;;;;73.40;28.80;;;;;;;2.53;87.07;100886.69;213823;1289;138439;-86
2024/03/08 19:51:04;;;;;;;67.40;28.20;;;;;;;2.49;87.48;100884.90;213277;1293;139651;-87
2024/03/08 19:56:05;;;;;;;69.00;27.30;;;;;;;2.44;88.26;100876.89;213987;1291;106826;-86
2024/03/08 20:01:09;;;;;;;65.70;27.40;;;;;;;2.38;88.14;100885.02;215461;1289;139409;-87
2024/03/08 20:06:10;;;;;;;59.70;27.30;;;;;;;2.33;88.64;100884.23;214163;1291;139134;-86
2024/03/08 20:11:11;;;;;;;71.30;30.30;;;;;;;2.28;89.21;100878.88;213692;1289;138902;-87
2024/03/08 20:16:12;;;;;;;131.80;40.10;;;;;;;2.23;89.42;100872.71;213474;1292;137212;-86
2024/03/08 20:21:13;;;;;;;85.20;32.50;;;;;;;2.14;89.78;100870.88;213424;1289;139548;-87
2024/03/08 20:26:15;;;;;;;167.50;56.80;;;;;;;2.09;89.66;100868.41;213638;1288;96621;-89
2024/03/08 20:31:16;;;;;;;141.10;43.80;;;;;;;2.00;89.76;100862.13;213021;1289;240736;-86
2024/03/08 20:36:16;;;;;;;104.60;35.70;;;;;;;1.94;90.05;100860.15;213111;1293;138839;-85
2024/03/08 20:41:17;;;;;;;78.00;31.50;;;;;;;1.91;90.55;100858.42;213194;1289;221811;-86
2024/03/08 20:46:17;;;;;;;62.90;28.70;;;;;;;1.86;90.69;100849.02;213561;1289;142116;-83
2024/03/08 20:51:19;;;;;;;73.20;30.10;;;;;;;1.82;91.20;100848.08;213901;1289;138489;-82
2024/03/08 20:56:20;;;;;;;73.80;29.90;;;;;;;1.77;91.42;100843.96;213269;1290;139202;-83
2024/03/08 21:01:20;;;;;;;75.30;31.10;;;;;;;1.72;91.57;100840.17;215825;1289;138167;-84
2024/03/08 21:06:21;;;;;;;79.20;32.00;;;;;;;1.67;92.15;100840.79;213504;1289;140008;-83
2024/03/08 21:11:23;;;;;;;75.30;30.70;;;;;;;1.62;92.44;100836.16;213930;1289;138291;-83
2024/03/08 21:16:24;;;;;;;74.00;31.90;;;;;;;1.56;92.67;100834.67;212933;1289;139942;-83
2024/03/08 21:21:25;;;;;;;65.50;30.30;;;;;;;1.51;92.98;100829.30;213219;1291;138312;-83
2024/03/08 21:26:26;;;;;;;63.80;28.70;;;;;;;1.46;93.17;100825.84;212860;1289;140185;-83
2024/03/08 21:31:27;;;;;;;67.20;30.20;;;;;;;1.39;93.34;100820.14;213493;1289;96697;-83
2024/03/08 21:36:29;;;;;;;86.40;36.00;;;;;;;1.32;93.63;100811.36;213184;1290;140156;-83
2024/03/08 21:41:30;;;;;;;85.00;35.40;;;;;;;1.28;93.67;100815.59;213325;1291;139132;-83
2024/03/08 21:46:30;;;;;;;89.50;34.20;;;;;;;1.22;94.22;100810.38;213012;1289;139514;-83
2024/03/08 21:51:32;;;;;;;78.10;31.40;;;;;;;1.17;94.39;100808.63;213171;1289;138526;-83
2024/03/08 21:56:33;;;;;;;76.40;30.90;;;;;;;1.11;95.29;100809.88;212750;1289;139567;-83
2024/03/08 22:01:34;;;;;;;84.90;31.60;;;;;;;1.08;95.52;100806.19;215576;1291;96669;-83
2024/03/08 22:06:34;;;;;;;66.70;30.60;;;;;;;1.02;95.57;100802.11;213012;1294;139788;-83
2024/03/08 22:11:36;;;;;;;78.10;30.30;;;;;;;0.98;96.04;100797.70;213281;1289;139075;-83
2024/03/08 22:16:38;;;;;;;73.90;29.60;;;;;;;0.93;96.22;100791.55;212884;1291;140383;-82
2024/03/08 22:21:40;;;;;;;71.70;29.20;;;;;;;0.89;96.48;100789.14;213230;1290;138580;-83
2024/03/08 22:26:41;;;;;;;72.40;31.20;;;;;;;0.84;97.12;100785.70;212829;1289;139884;-83